Sarfaq Ittuk — OWDD — position and weather

sailwx.info

Track history (hours):
 
Tides and Currents Weather Stations Pressure Air Temp Water Temp Dewpoint Dewpoint Depression Visibility Wind Speed Wind Dir Waves Ship Positions

Sarfaq Ittuk

Last reported at 2017-Oct-17 06:00 UTC. Time now 2017-Oct-17 06:08 UTC.
Position N 64°18' W 052°27'.

Length 73 m; beam 11.1 m; draft 3.7 m.

Type: Passenger vessel. MMSI: 331000499.

Date/timePositionNaut miles runAvg speedWind from/ knotsBaromVisibWave heightAir tempDewpointWater temp
2017-Oct-17 06:00N 64°18' W 052°27'510.6
2017-Oct-17 05:30N 64°23' W 052°30'510.8
2017-Oct-17 05:00N 64°28' W 052°32'611.5
2017-Oct-17 04:30N 64°34' W 052°35'611.9
2017-Oct-17 04:00N 64°40' W 052°37'611.8
2017-Oct-17 03:30N 64°46' W 052°40'611.5
2017-Oct-17 03:00N 64°51' W 052°43'611.6
2017-Oct-17 02:30N 64°57' W 052°45'611.3
2017-Oct-17 02:00N 65°02' W 052°48'611.5
2017-Oct-17 01:30N 65°08' W 052°50'36 7.4
2017-Oct-16 20:38N 65°42' W 053°20'111.4
2017-Oct-16 20:30N 65°43' W 053°20'  
2017-Oct-14 06:27N 65°12' W 052°37'511.5
2017-Oct-14 06:00N 65°07' W 052°35'611.4
2017-Oct-14 05:30N 65°02' W 052°34'510.4
2017-Oct-14 05:00N 64°56' W 052°33'510.4
2017-Oct-14 04:30N 64°51' W 052°31'510.3
2017-Oct-14 04:00N 64°46' W 052°29'510.4
2017-Oct-14 03:30N 64°41' W 052°30'510.3
2017-Oct-14 03:00N 64°36' W 052°30'510.2
2017-Oct-14 02:30N 64°31' W 052°31'510.1
2017-Oct-14 02:00N 64°26' W 052°31'5 9.1
2017-Oct-14 01:30N 64°21' W 052°29'4 8.5
2017-Oct-14 01:00N 64°17' W 052°26'4 9.0
2017-Oct-14 00:30N 64°13' W 052°24'4 8.6
2017-Oct-14 00:00N 64°09' W 052°19'4 8.6
2017-Oct-13 23:30N 64°05' W 052°14'4 8.0
2017-Oct-13 23:00N 64°05' W 052°05'612.7
2017-Oct-13 22:30N 64°08' W 051°52'5 9.2
2017-Oct-13 22:00N 64°10' W 051°43'0 0.0
2017-Oct-13 21:30N 64°10' W 051°43'0 0.0
2017-Oct-13 21:00N 64°10' W 051°43'0 0.0
2017-Oct-13 20:31N 64°10' W 051°43'0 0.0
2017-Oct-13 20:00N 64°10' W 051°43'0 0.0
2017-Oct-13 19:30N 64°10' W 051°43'0 0.0
2017-Oct-13 19:00N 64°10' W 051°43'0 0.0
2017-Oct-13 18:31N 64°10' W 051°43'0 0.0
2017-Oct-13 18:00N 64°10' W 051°43'0 0.0
2017-Oct-13 17:30N 64°10' W 051°43'0 0.0
2017-Oct-13 17:00N 64°10' W 051°43'0 0.0
2017-Oct-13 16:30N 64°10' W 051°43'0 0.0
2017-Oct-13 16:00N 64°10' W 051°43'0 0.0
2017-Oct-13 15:30N 64°10' W 051°43'0 0.0
2017-Oct-13 15:01N 64°10' W 051°43'0 0.0
2017-Oct-13 14:30N 64°10' W 051°43'0 0.0
2017-Oct-13 14:00N 64°10' W 051°43'0 0.0
2017-Oct-13 13:30N 64°10' W 051°43'0 0.0
2017-Oct-13 13:00N 64°10' W 051°43'0 0.0
2017-Oct-13 12:30N 64°10' W 051°43'0 0.0
2017-Oct-13 12:00N 64°10' W 051°43'0 0.0
2017-Oct-13 11:30N 64°10' W 051°43'0 0.0
2017-Oct-13 11:00N 64°10' W 051°43'0 0.0
2017-Oct-13 10:30N 64°10' W 051°43'0 0.0
2017-Oct-13 10:01N 64°10' W 051°43'0 0.0
2017-Oct-13 09:31N 64°10' W 051°43'3 5.1
2017-Oct-13 09:00N 64°08' W 051°41'510.3
2017-Oct-13 08:30N 64°03' W 051°38'5 9.4
2017-Oct-13 07:59N 63°58' W 051°38'510.1
2017-Oct-13 07:30N 63°54' W 051°34'510.9
2017-Oct-13 07:00N 63°48' W 051°35'510.3
2017-Oct-13 06:30N 63°43' W 051°37'  
2017-Oct-10 14:43N 63°29' W 051°34'1511.6
2017-Oct-10 13:28N 63°44' W 051°36'511.7
2017-Oct-10 13:00N 63°49' W 051°35'712.1
2017-Oct-10 12:28N 63°56' W 051°34'511.7
2017-Oct-10 12:01N 64°00' W 051°41'611.5
2017-Oct-10 11:30N 64°06' W 051°39'5 9.3
2017-Oct-10 11:00N 64°10' W 051°43'0 0.0
2017-Oct-10 10:30N 64°10' W 051°43'0 0.0
2017-Oct-10 10:01N 64°10' W 051°43'0 0.0
2017-Oct-10 09:30N 64°10' W 051°43'0 0.0
2017-Oct-10 09:00N 64°10' W 051°43'2 3.5
2017-Oct-10 08:31N 64°09' W 051°46'611.0
2017-Oct-10 08:00N 64°06' W 051°57'611.4
2017-Oct-10 07:30N 64°04' W 052°09'510.9
2017-Oct-10 07:00N 64°08' W 052°17'510.3
2017-Oct-10 06:30N 64°12' W 052°23'611.2
2017-Oct-10 06:00N 64°17' W 052°26'611.3
2017-Oct-10 05:30N 64°23' W 052°30'611.1
2017-Oct-10 05:00N 64°28' W 052°32'611.5
2017-Oct-10 04:30N 64°34' W 052°35'611.7
2017-Oct-10 04:00N 64°40' W 052°37'612.0
2017-Oct-10 03:30N 64°46' W 052°40'612.1
2017-Oct-10 03:00N 64°52' W 052°43'612.1
2017-Oct-10 02:30N 64°57' W 052°45'612.3
2017-Oct-10 02:00N 65°04' W 052°48'611.4
2017-Oct-10 01:30N 65°09' W 052°51'711.2
2017-Oct-10 00:53N 65°16' W 052°51'28 7.1
2017-Oct-09 20:54N 65°42' W 053°20'  
2017-Oct-07 12:43N 65°51' W 053°29'45 6.9
2017-Oct-07 06:10N 65°09' W 052°51'  
Track history (hours):
 
Tides and Currents Weather Stations Pressure Air Temp Water Temp Dewpoint Dewpoint Depression Visibility Wind Speed Wind Dir Waves Ship Positions

Sarfaq Ittuk

Last reported at 2017-Oct-17 06:00 UTC. Time now 2017-Oct-17 06:08 UTC.
Position N 64°18' W 052°27'.

Length 73 m; beam 11.1 m; draft 3.7 m.

Type: Passenger vessel. MMSI: 331000499.

Date/timePositionNaut miles runAvg speedWind from/ knotsBaromVisibWave heightAir tempDewpointWater temp
2017-Oct-17 06:00N 64°18' W 052°27'510.6
2017-Oct-17 05:30N 64°23' W 052°30'510.8
2017-Oct-17 05:00N 64°28' W 052°32'611.5
2017-Oct-17 04:30N 64°34' W 052°35'611.9
2017-Oct-17 04:00N 64°40' W 052°37'611.8
2017-Oct-17 03:30N 64°46' W 052°40'611.5
2017-Oct-17 03:00N 64°51' W 052°43'611.6
2017-Oct-17 02:30N 64°57' W 052°45'611.3
2017-Oct-17 02:00N 65°02' W 052°48'611.5
2017-Oct-17 01:30N 65°08' W 052°50'36 7.4
2017-Oct-16 20:38N 65°42' W 053°20'111.4
2017-Oct-16 20:30N 65°43' W 053°20'  
2017-Oct-14 06:27N 65°12' W 052°37'511.5
2017-Oct-14 06:00N 65°07' W 052°35'611.4
2017-Oct-14 05:30N 65°02' W 052°34'510.4
2017-Oct-14 05:00N 64°56' W 052°33'510.4
2017-Oct-14 04:30N 64°51' W 052°31'510.3
2017-Oct-14 04:00N 64°46' W 052°29'510.4
2017-Oct-14 03:30N 64°41' W 052°30'510.3
2017-Oct-14 03:00N 64°36' W 052°30'510.2
2017-Oct-14 02:30N 64°31' W 052°31'510.1
2017-Oct-14 02:00N 64°26' W 052°31'5 9.1
2017-Oct-14 01:30N 64°21' W 052°29'4 8.5
2017-Oct-14 01:00N 64°17' W 052°26'4 9.0
2017-Oct-14 00:30N 64°13' W 052°24'4 8.6
2017-Oct-14 00:00N 64°09' W 052°19'4 8.6
2017-Oct-13 23:30N 64°05' W 052°14'4 8.0
2017-Oct-13 23:00N 64°05' W 052°05'612.7
2017-Oct-13 22:30N 64°08' W 051°52'5 9.2
2017-Oct-13 22:00N 64°10' W 051°43'0 0.0
2017-Oct-13 21:30N 64°10' W 051°43'0 0.0
2017-Oct-13 21:00N 64°10' W 051°43'0 0.0
2017-Oct-13 20:31N 64°10' W 051°43'0 0.0
2017-Oct-13 20:00N 64°10' W 051°43'0 0.0
2017-Oct-13 19:30N 64°10' W 051°43'0 0.0
2017-Oct-13 19:00N 64°10' W 051°43'0 0.0
2017-Oct-13 18:31N 64°10' W 051°43'0 0.0
2017-Oct-13 18:00N 64°10' W 051°43'0 0.0
2017-Oct-13 17:30N 64°10' W 051°43'0 0.0
2017-Oct-13 17:00N 64°10' W 051°43'0 0.0
2017-Oct-13 16:30N 64°10' W 051°43'0 0.0
2017-Oct-13 16:00N 64°10' W 051°43'0 0.0
2017-Oct-13 15:30N 64°10' W 051°43'0 0.0
2017-Oct-13 15:01N 64°10' W 051°43'0 0.0
2017-Oct-13 14:30N 64°10' W 051°43'0 0.0
2017-Oct-13 14:00N 64°10' W 051°43'0 0.0
2017-Oct-13 13:30N 64°10' W 051°43'0 0.0
2017-Oct-13 13:00N 64°10' W 051°43'0 0.0
2017-Oct-13 12:30N 64°10' W 051°43'0 0.0
2017-Oct-13 12:00N 64°10' W 051°43'0 0.0
2017-Oct-13 11:30N 64°10' W 051°43'0 0.0
2017-Oct-13 11:00N 64°10' W 051°43'0 0.0
2017-Oct-13 10:30N 64°10' W 051°43'0 0.0
2017-Oct-13 10:01N 64°10' W 051°43'0 0.0
2017-Oct-13 09:31N 64°10' W 051°43'3 5.1
2017-Oct-13 09:00N 64°08' W 051°41'510.3
2017-Oct-13 08:30N 64°03' W 051°38'5 9.4
2017-Oct-13 07:59N 63°58' W 051°38'510.1
2017-Oct-13 07:30N 63°54' W 051°34'510.9
2017-Oct-13 07:00N 63°48' W 051°35'510.3
2017-Oct-13 06:30N 63°43' W 051°37'  
2017-Oct-10 14:43N 63°29' W 051°34'1511.6
2017-Oct-10 13:28N 63°44' W 051°36'511.7
2017-Oct-10 13:00N 63°49' W 051°35'712.1
2017-Oct-10 12:28N 63°56' W 051°34'511.7
2017-Oct-10 12:01N 64°00' W 051°41'611.5
2017-Oct-10 11:30N 64°06' W 051°39'5 9.3
2017-Oct-10 11:00N 64°10' W 051°43'0 0.0
2017-Oct-10 10:30N 64°10' W 051°43'0 0.0
2017-Oct-10 10:01N 64°10' W 051°43'0 0.0
2017-Oct-10 09:30N 64°10' W 051°43'0 0.0
2017-Oct-10 09:00N 64°10' W 051°43'2 3.5
2017-Oct-10 08:31N 64°09' W 051°46'611.0
2017-Oct-10 08:00N 64°06' W 051°57'611.4
2017-Oct-10 07:30N 64°04' W 052°09'510.9
2017-Oct-10 07:00N 64°08' W 052°17'510.3
2017-Oct-10 06:30N 64°12' W 052°23'611.2
2017-Oct-10 06:00N 64°17' W 052°26'611.3
2017-Oct-10 05:30N 64°23' W 052°30'611.1
2017-Oct-10 05:00N 64°28' W 052°32'611.5
2017-Oct-10 04:30N 64°34' W 052°35'611.7
2017-Oct-10 04:00N 64°40' W 052°37'612.0
2017-Oct-10 03:30N 64°46' W 052°40'612.1
2017-Oct-10 03:00N 64°52' W 052°43'612.1
2017-Oct-10 02:30N 64°57' W 052°45'612.3
2017-Oct-10 02:00N 65°04' W 052°48'611.4
2017-Oct-10 01:30N 65°09' W 052°51'711.2
2017-Oct-10 00:53N 65°16' W 052°51'28 7.1
2017-Oct-09 20:54N 65°42' W 053°20'  
2017-Oct-07 12:43N 65°51' W 053°29'45 6.9
2017-Oct-07 06:10N 65°09' W 052°51'  

Dump ship's entire track history